Time;durP1;ratioP1;P1;durP2;ratioP2;P2;SDS_P1;SDS_P2;PMS_P1;PMS_P2;Temp;Humidity;BMP_temperature;BMP_pressure;BME280_temperature;BME280_humidity;BME280_pressure;Samples;Min_cycle;Max_cycle;Signal;HPM_P1;HPM_P2
2023/08/15 00:00:03;;;;;;;7.35;5.15;;;;;;;23.57;76.29;100383.97;4117312;28;20046;-62
2023/08/15 00:02:14;;;;;;;10.50;5.88;;;;;;;23.54;76.27;100387.63;4114491;28;20050;-62
2023/08/15 00:04:17;;;;;;;11.95;5.93;;;;;;;23.52;76.57;100394.78;4117446;28;20085;-62
2023/08/15 00:06:20;;;;;;;9.10;5.57;;;;;;;23.51;76.67;100383.31;4102269;28;20062;-62
2023/08/15 00:08:23;;;;;;;7.82;6.15;;;;;;;23.51;76.59;100382.47;4109978;28;20130;-62
2023/08/15 00:10:26;;;;;;;9.73;5.72;;;;;;;23.52;76.51;100379.75;4113780;28;20516;-62
2023/08/15 00:12:29;;;;;;;10.63;6.28;;;;;;;23.48;76.79;100380.78;4115412;28;20460;-62
2023/08/15 00:14:33;;;;;;;7.55;5.45;;;;;;;23.51;76.68;100377.16;4105208;28;20503;-62
2023/08/15 00:16:36;;;;;;;12.20;6.32;;;;;;;23.49;76.71;100378.97;4112408;28;20121;-62
2023/08/15 00:18:39;;;;;;;8.20;6.00;;;;;;;23.49;76.62;100369.22;4116850;28;20418;-62
2023/08/15 00:20:42;;;;;;;8.57;5.30;;;;;;;23.47;76.81;100367.56;4114994;28;20118;-62
2023/08/15 00:22:45;;;;;;;11.00;6.07;;;;;;;23.45;77.03;100374.72;4118525;28;20050;-62
2023/08/15 00:24:47;;;;;;;7.80;5.82;;;;;;;23.45;76.82;100369.41;4112057;28;20035;-62
2023/08/15 00:26:50;;;;;;;10.70;5.45;;;;;;;23.47;77.06;100375.53;4113299;28;20038;-62
2023/08/15 00:28:53;;;;;;;16.58;6.07;;;;;;;23.46;76.78;100376.47;4101298;28;20428;-62
2023/08/15 00:30:56;;;;;;;9.75;5.53;;;;;;;23.46;77.04;100377.31;4114737;28;20081;-62
2023/08/15 00:32:59;;;;;;;10.27;6.15;;;;;;;23.42;77.10;100380.16;4114564;28;20558;-62
2023/08/15 00:35:03;;;;;;;13.55;6.95;;;;;;;23.42;77.14;100378.38;4114900;28;20086;-63
2023/08/15 00:37:06;;;;;;;9.45;5.68;;;;;;;23.38;77.05;100378.53;4110022;28;20043;-62
2023/08/15 00:39:09;;;;;;;10.52;6.22;;;;;;;23.34;77.30;100386.63;4113053;28;20043;-62
2023/08/15 00:41:12;;;;;;;9.15;6.22;;;;;;;23.30;77.42;100374.41;4113823;28;20041;-62
2023/08/15 00:43:17;;;;;;;16.40;6.20;;;;;;;23.27;77.57;100379.84;4097215;28;20063;-62
2023/08/15 00:45:20;;;;;;;8.25;6.38;;;;;;;23.26;77.65;100380.78;4107749;28;20042;-62
2023/08/15 00:47:25;;;;;;;10.80;6.53;;;;;;;23.26;77.48;100377.25;4111545;28;20047;-62
2023/08/15 00:49:28;;;;;;;10.27;5.10;;;;;;;23.23;77.52;100372.97;4111421;28;20125;-62
2023/08/15 00:51:32;;;;;;;8.23;5.80;;;;;;;23.15;77.92;100375.91;4116713;28;20077;-62
2023/08/15 00:53:35;;;;;;;10.27;6.45;;;;;;;23.11;77.81;100378.72;4133051;28;20503;-63
2023/08/15 00:55:39;;;;;;;8.57;5.72;;;;;;;23.12;77.99;100380.47;4106376;28;20094;-62
2023/08/15 00:57:42;;;;;;;7.90;5.93;;;;;;;23.14;77.92;100373.31;4105760;28;20038;-62
2023/08/15 00:59:45;;;;;;;9.18;5.28;;;;;;;23.14;78.03;100378.59;4113217;28;20294;-62
2023/08/15 01:01:49;;;;;;;8.85;5.68;;;;;;;23.14;77.92;100378.59;4114479;28;20046;-62
2023/08/15 01:03:54;;;;;;;17.27;6.25;;;;;;;23.12;77.92;100364.56;4102966;28;20043;-62
2023/08/15 01:05:57;;;;;;;9.65;6.35;;;;;;;23.11;78.09;100358.38;4116615;28;20043;-62
2023/08/15 01:08:01;;;;;;;10.83;6.83;;;;;;;23.11;77.72;100358.38;4102937;28;20039;-62
2023/08/15 01:10:03;;;;;;;9.38;6.28;;;;;;;23.13;77.74;100355.66;4103288;28;20047;-62
2023/08/15 01:12:16;;;;;;;12.85;6.82;;;;;;;23.13;77.67;100345.03;4113245;28;20146;-62
2023/08/15 01:14:26;;;;;;;8.25;5.50;;;;;;;23.10;77.47;100343.41;4111284;28;20042;-62
2023/08/15 01:16:37;;;;;;;11.35;6.43;;;;;;;23.12;77.56;100344.19;4115687;28;20034;-62
2023/08/15 01:18:45;;;;;;;9.98;5.82;;;;;;;23.12;77.53;100348.66;4110735;28;20146;-62
2023/08/15 01:20:51;;;;;;;14.18;5.60;;;;;;;23.11;77.38;100354.88;4110453;28;20043;-62
2023/08/15 01:23:00;;;;;;;9.75;7.22;;;;;;;23.12;77.64;100353.94;4117825;28;20093;-62
2023/08/15 01:25:05;;;;;;;11.52;6.10;;;;;;;23.09;77.57;100354.91;4117371;28;20572;-62
2023/08/15 01:27:08;;;;;;;9.30;6.10;;;;;;;23.08;77.92;100362.91;4112492;28;20062;-62
2023/08/15 01:29:11;;;;;;;9.80;6.00;;;;;;;23.08;77.78;100361.13;4111213;28;20074;-62
2023/08/15 01:31:19;;;;;;;13.20;6.80;;;;;;;23.01;77.96;100363.16;4106448;28;20047;-62
2023/08/15 01:33:29;;;;;;;11.25;6.85;;;;;;;23.01;78.01;100359.63;4112571;28;20066;-62
2023/08/15 01:35:34;;;;;;;8.38;5.97;;;;;;;22.98;77.72;100363.28;4111372;28;20470;-62
2023/08/15 01:37:41;;;;;;;10.82;5.80;;;;;;;22.97;78.08;100366.84;4111338;28;20772;-62
2023/08/15 01:39:50;;;;;;;11.38;6.50;;;;;;;22.96;78.00;100365.13;4105687;28;20050;-61
2023/08/15 01:41:57;;;;;;;9.32;6.20;;;;;;;22.96;77.98;100366.91;4117155;28;20500;-61
2023/08/15 01:44:01;;;;;;;8.95;6.15;;;;;;;22.96;77.90;100374.88;4115967;28;20046;-62
2023/08/15 01:46:04;;;;;;;10.73;6.55;;;;;;;22.95;78.18;100373.97;4115840;28;20038;-61
2023/08/15 01:48:07;;;;;;;12.05;5.95;;;;;;;22.96;78.16;100373.06;4108187;28;20125;-62
2023/08/15 01:50:10;;;;;;;11.00;6.75;;;;;;;22.95;78.13;100378.44;4111751;28;20038;-62
2023/08/15 01:52:12;;;;;;;12.45;5.97;;;;;;;22.93;78.40;100380.28;4112840;28;20043;-62
2023/08/15 01:54:15;;;;;;;12.88;6.95;;;;;;;22.92;78.15;100368.81;4108997;28;20091;-62
2023/08/15 01:56:18;;;;;;;8.00;5.43;;;;;;;22.90;77.97;100365.34;4108070;28;20054;-60
2023/08/15 01:58:22;;;;;;;7.65;5.13;;;;;;;22.90;78.30;100370.66;4111822;28;20050;-62
2023/08/15 02:00:25;;;;;;;8.23;6.25;;;;;;;22.89;78.33;100373.38;4112003;28;20125;-62
2023/08/15 02:02:28;;;;;;;9.00;5.78;;;;;;;22.89;78.41;100383.97;4114384;28;20393;-62
2023/08/15 02:04:31;;;;;;;9.07;6.82;;;;;;;22.89;78.09;100382.19;4111446;28;20536;-62
2023/08/15 02:06:34;;;;;;;10.07;6.30;;;;;;;22.87;78.39;100384.03;4114681;28;20077;-61
2023/08/15 02:08:37;;;;;;;12.77;6.40;;;;;;;22.86;78.61;100392.91;4108345;28;20043;-61
2023/08/15 02:10:41;;;;;;;8.65;6.28;;;;;;;22.87;78.52;100397.28;4112155;28;20691;-61
2023/08/15 02:12:44;;;;;;;10.98;7.57;;;;;;;22.87;78.77;100397.28;4116042;28;20045;-61
2023/08/15 02:14:48;;;;;;;17.95;8.95;;;;;;;22.85;79.20;100399.13;4110950;28;20041;-61
2023/08/15 02:16:51;;;;;;;12.55;8.02;;;;;;;22.78;79.89;100402.91;4126951;28;20042;-61
2023/08/15 02:18:54;;;;;;;11.45;8.27;;;;;;;22.73;80.27;100397.78;4096755;28;20055;-61
2023/08/15 02:20:57;;;;;;;13.55;7.43;;;;;;;22.72;80.37;100419.94;4110451;28;20070;-60
2023/08/15 02:23:00;;;;;;;11.90;7.15;;;;;;;22.73;80.48;100439.34;4110787;28;20039;-61
2023/08/15 02:25:05;;;;;;;11.57;7.57;;;;;;;22.70;80.36;100452.72;4112958;28;20096;-60
2023/08/15 02:27:08;;;;;;;10.63;6.82;;;;;;;22.70;79.94;100450.06;4123945;28;20542;-61
2023/08/15 02:29:13;;;;;;;11.63;7.90;;;;;;;22.80;79.86;100441.69;4123982;28;20158;-61
2023/08/15 02:31:28;;;;;;;9.55;6.28;;;;;;;22.81;79.29;100434.63;4109604;28;20740;-61
2023/08/15 02:33:33;;;;;;;8.80;5.78;;;;;;;22.86;79.04;100437.13;4089541;29;20042;-62
2023/08/15 02:35:40;;;;;;;9.73;6.57;;;;;;;22.88;78.55;100444.09;4087063;29;20126;-62
2023/08/15 02:37:42;;;;;;;12.55;7.65;;;;;;;22.92;78.28;100442.19;4070097;29;20047;-62
2023/08/15 02:39:45;;;;;;;8.95;6.15;;;;;;;22.92;78.06;100437.72;4089727;29;20043;-62
2023/08/15 02:41:47;;;;;;;12.27;6.25;;;;;;;22.95;78.00;100453.50;4085453;29;20064;-62
2023/08/15 02:43:50;;;;;;;10.55;6.95;;;;;;;22.83;77.87;100467.25;4092385;29;20295;-62
2023/08/15 02:45:53;;;;;;;9.23;5.75;;;;;;;22.81;77.90;100453.19;4086899;29;20138;-61
2023/08/15 02:47:56;;;;;;;9.75;6.40;;;;;;;22.82;77.85;100444.28;4081561;29;20042;-62
2023/08/15 02:50:00;;;;;;;11.75;6.70;;;;;;;22.83;77.48;100435.44;4076018;29;22050;-61
2023/08/15 02:52:05;;;;;;;10.70;5.97;;;;;;;22.86;77.47;100431.81;4083605;28;20126;-62
2023/08/15 02:54:08;;;;;;;7.00;6.07;;;;;;;22.86;77.65;100427.34;4087756;29;20063;-62
2023/08/15 02:56:11;;;;;;;14.18;7.38;;;;;;;22.93;77.02;100412.09;4085414;29;20044;-62
2023/08/15 02:58:14;;;;;;;8.95;6.43;;;;;;;22.89;77.17;100416.63;4087119;29;20074;-62
2023/08/15 03:00:17;;;;;;;12.10;6.80;;;;;;;22.76;77.60;100415.38;4072302;29;20056;-61
2023/08/15 03:02:20;;;;;;;8.55;6.07;;;;;;;22.76;77.56;100394.16;4081436;29;20100;-62
2023/08/15 03:04:23;;;;;;;8.68;6.82;;;;;;;22.86;76.96;100384.94;4087782;29;20040;-62
2023/08/15 03:06:27;;;;;;;7.20;5.20;;;;;;;22.77;77.38;100380.00;4086212;29;20035;-62
2023/08/15 03:08:30;;;;;;;8.20;5.50;;;;;;;22.71;77.50;100388.19;4086506;29;20040;-62
2023/08/15 03:10:35;;;;;;;11.18;6.60;;;;;;;22.67;77.98;100388.28;4074506;29;20068;-61
2023/08/15 03:12:38;;;;;;;11.48;6.13;;;;;;;22.67;77.93;100390.06;4082346;29;20079;-62
2023/08/15 03:14:41;;;;;;;8.73;5.88;;;;;;;22.70;77.88;100389.97;4090035;29;20035;-62
2023/08/15 03:16:43;;;;;;;9.80;5.95;;;;;;;22.70;77.86;100392.63;4084800;29;20039;-62
2023/08/15 03:18:47;;;;;;;11.20;6.25;;;;;;;22.69;77.76;100388.22;4090579;29;20116;-61
2023/08/15 03:20:56;;;;;;;11.75;6.68;;;;;;;22.73;77.64;100389.00;4087334;29;20039;-62
2023/08/15 03:23:01;;;;;;;12.27;6.18;;;;;;;22.70;77.45;100387.31;4095274;28;20048;-61
2023/08/15 03:25:04;;;;;;;11.98;6.40;;;;;;;22.60;77.99;100373.53;4097579;29;20035;-62
2023/08/15 03:27:07;;;;;;;9.30;6.80;;;;;;;22.59;77.94;100371.81;4088259;29;20097;-62
2023/08/15 03:29:09;;;;;;;10.02;5.95;;;;;;;22.58;77.97;100377.19;4089228;29;20071;-61
2023/08/15 03:31:13;;;;;;;10.38;6.57;;;;;;;22.63;78.02;100385.81;4092867;28;20128;-61
2023/08/15 03:33:22;;;;;;;9.77;7.15;;;;;;;22.60;77.70;100384.13;4089577;29;20581;-62
2023/08/15 03:35:25;;;;;;;10.00;7.53;;;;;;;22.58;78.19;100379.84;4069250;29;20498;-62
2023/08/15 03:37:30;;;;;;;11.45;6.65;;;;;;;22.53;78.42;100387.06;4082886;29;20496;-61
2023/08/15 03:39:35;;;;;;;9.65;6.80;;;;;;;22.52;78.66;100391.50;4080832;29;20521;-62
2023/08/15 03:41:37;;;;;;;11.45;8.63;;;;;;;22.53;78.84;100395.91;4089737;29;20107;-61
2023/08/15 03:43:40;;;;;;;11.48;8.13;;;;;;;22.60;78.61;100397.38;4087819;29;20134;-62
2023/08/15 03:45:43;;;;;;;12.65;8.32;;;;;;;22.61;78.37;100407.06;4071822;29;20044;-61
2023/08/15 03:47:45;;;;;;;10.75;7.50;;;;;;;22.60;78.61;100402.69;4088433;29;20046;-61
2023/08/15 03:49:48;;;;;;;9.38;7.22;;;;;;;22.57;78.84;100400.16;4087897;29;20094;-61
2023/08/15 03:51:52;;;;;;;9.65;7.10;;;;;;;22.59;78.92;100400.09;4088824;28;20049;-62
2023/08/15 03:53:55;;;;;;;11.68;7.32;;;;;;;22.61;78.99;100396.47;4083810;29;20044;-62
2023/08/15 03:55:59;;;;;;;10.73;7.32;;;;;;;22.63;78.98;100407.91;4090294;29;20126;-62
2023/08/15 03:58:02;;;;;;;11.25;7.75;;;;;;;22.73;78.64;100410.19;4086752;29;20052;-62
2023/08/15 04:00:06;;;;;;;11.82;8.23;;;;;;;22.63;78.98;100415.84;4088320;29;20042;-62
2023/08/15 04:02:15;;;;;;;9.45;6.72;;;;;;;22.62;78.46;100423.84;4091116;28;20501;-61
2023/08/15 04:04:18;;;;;;;11.45;6.55;;;;;;;22.43;79.79;100452.78;4085551;29;20052;-61
2023/08/15 04:06:21;;;;;;;8.82;6.50;;;;;;;22.43;79.70;100482.78;4084564;29;20046;-62
2023/08/15 04:08:23;;;;;;;9.15;7.18;;;;;;;22.49;79.45;100510.84;4077256;29;20052;-61
2023/08/15 04:10:26;;;;;;;13.85;8.13;;;;;;;22.51;79.52;100522.25;4090400;29;20107;-62
2023/08/15 04:12:33;;;;;;;8.45;6.50;;;;;;;22.52;79.73;100512.53;4084167;29;20040;-62
2023/08/15 04:14:35;;;;;;;16.83;8.20;;;;;;;22.56;79.67;100509.72;4086665;29;20040;-61
2023/08/15 04:16:38;;;;;;;12.50;6.93;;;;;;;22.62;79.38;100498.03;4068362;29;20052;-62
2023/08/15 04:18:41;;;;;;;9.43;6.53;;;;;;;22.65;79.26;100493.50;4088684;29;20035;-62
2023/08/15 04:20:45;;;;;;;11.20;6.47;;;;;;;22.70;79.00;100500.41;4089138;29;20070;-61
2023/08/15 04:22:48;;;;;;;14.55;7.22;;;;;;;22.74;78.59;100507.34;4084039;29;20126;-61
2023/08/15 04:24:51;;;;;;;11.32;8.00;;;;;;;22.78;77.76;100519.53;4105197;28;20440;-61
2023/08/15 04:26:54;;;;;;;11.45;7.10;;;;;;;22.88;75.98;100526.28;4085979;29;20510;-61
2023/08/15 04:28:58;;;;;;;9.52;5.82;;;;;;;22.80;75.23;100525.66;4090698;29;20556;-61
2023/08/15 04:31:01;;;;;;;8.23;5.35;;;;;;;22.79;74.32;100532.78;4088667;29;20177;-61
2023/08/15 04:33:04;;;;;;;9.10;4.65;;;;;;;22.83;73.08;100534.38;4090881;29;20071;-62
2023/08/15 04:35:09;;;;;;;10.40;5.57;;;;;;;22.82;72.51;100537.97;4088069;29;20043;-62
2023/08/15 04:37:13;;;;;;;9.13;4.82;;;;;;;22.73;72.83;100532.97;4085923;29;20433;-62
2023/08/15 04:39:16;;;;;;;9.63;5.68;;;;;;;22.71;73.07;100553.38;4091543;29;20050;-62
2023/08/15 04:41:19;;;;;;;9.38;5.00;;;;;;;22.74;72.77;100557.69;4073479;29;20072;-62
2023/08/15 04:43:22;;;;;;;12.40;5.70;;;;;;;22.78;72.82;100556.66;4101318;28;20122;-62
2023/08/15 04:45:26;;;;;;;12.05;5.57;;;;;;;22.82;72.55;100542.38;4100251;28;20485;-62
2023/08/15 04:47:29;;;;;;;10.07;4.55;;;;;;;22.81;71.97;100538.88;4087409;29;20032;-62
2023/08/15 04:49:35;;;;;;;9.82;5.15;;;;;;;22.80;71.91;100544.22;4089466;29;20533;-62
2023/08/15 04:51:38;;;;;;;9.77;4.97;;;;;;;22.85;72.20;100536.97;4091422;28;20162;-62
2023/08/15 04:53:41;;;;;;;12.52;7.07;;;;;;;22.83;72.60;100544.97;4096315;29;20039;-62
2023/08/15 04:55:44;;;;;;;8.07;4.78;;;;;;;22.80;72.95;100545.06;4099223;28;20150;-62
2023/08/15 04:57:47;;;;;;;8.57;5.32;;;;;;;22.79;73.45;100548.66;4087320;29;20123;-62
2023/08/15 04:59:50;;;;;;;10.20;6.53;;;;;;;22.86;73.45;100549.31;4087999;28;20043;-62
2023/08/15 05:01:54;;;;;;;11.52;6.32;;;;;;;22.87;73.70;100551.03;4091587;29;20063;-62
2023/08/15 05:03:57;;;;;;;10.95;5.95;;;;;;;22.87;73.76;100545.75;4090033;28;20071;-62
2023/08/15 05:06:00;;;;;;;12.23;5.25;;;;;;;22.90;73.42;100545.63;4076284;29;20107;-62
2023/08/15 05:08:06;;;;;;;11.90;6.63;;;;;;;22.95;72.60;100556.06;4105214;28;20043;-62
2023/08/15 05:10:08;;;;;;;9.07;5.80;;;;;;;22.98;72.22;100559.47;4089954;29;20141;-62
2023/08/15 05:12:13;;;;;;;9.20;4.95;;;;;;;22.97;71.99;100562.19;4091710;29;20134;-62
2023/08/15 05:14:17;;;;;;;8.73;4.13;;;;;;;22.98;70.85;100551.53;4091475;29;20040;-62
2023/08/15 05:16:20;;;;;;;7.18;4.15;;;;;;;23.04;70.56;100552.22;4072190;29;20064;-61
2023/08/15 05:18:24;;;;;;;6.93;3.60;;;;;;;23.08;69.50;100544.09;4087612;29;20051;-62
2023/08/15 05:20:27;;;;;;;7.45;3.88;;;;;;;22.98;69.87;100543.56;4087978;29;20036;-62
2023/08/15 05:22:30;;;;;;;7.07;3.22;;;;;;;22.98;69.46;100545.34;4085238;29;20075;-62
2023/08/15 05:24:34;;;;;;;4.63;2.80;;;;;;;23.06;68.83;100524.72;4090454;29;20050;-62
2023/08/15 05:26:37;;;;;;;5.15;2.90;;;;;;;23.16;67.81;100520.84;4087023;29;20061;-62
2023/08/15 05:28:40;;;;;;;7.30;3.63;;;;;;;23.18;67.38;100518.13;4098149;28;20043;-61
2023/08/15 05:30:43;;;;;;;8.43;3.63;;;;;;;23.09;68.14;100518.44;4088644;29;20156;-61
2023/08/15 05:32:46;;;;;;;5.33;3.30;;;;;;;22.99;69.18;100512.63;4085291;28;20099;-62
2023/08/15 05:34:51;;;;;;;7.57;3.78;;;;;;;23.07;68.61;100507.03;4100322;28;20294;-61
2023/08/15 05:36:55;;;;;;;7.78;3.30;;;;;;;23.13;68.58;100515.66;4083862;29;20039;-62
2023/08/15 05:38:57;;;;;;;10.40;3.67;;;;;;;23.13;68.48;100514.78;4083898;29;20087;-62
2023/08/15 05:41:00;;;;;;;5.88;3.47;;;;;;;23.25;68.39;100506.38;4087415;29;20050;-62
2023/08/15 05:43:03;;;;;;;7.70;3.45;;;;;;;23.29;68.02;100496.50;4087968;28;20055;-61
2023/08/15 05:45:07;;;;;;;8.60;3.60;;;;;;;23.33;67.84;100495.47;4068576;29;20044;-62
2023/08/15 05:47:10;;;;;;;8.90;3.22;;;;;;;23.31;67.78;100492.00;4082296;29;20036;-61
2023/08/15 05:49:13;;;;;;;8.38;3.10;;;;;;;23.45;66.45;100491.47;4085217;29;20506;-61
2023/08/15 05:51:17;;;;;;;4.22;2.92;;;;;;;23.37;67.29;100496.22;4084037;29;20048;-61
2023/08/15 05:53:20;;;;;;;5.78;2.92;;;;;;;23.36;66.22;100500.66;4080007;29;20401;-61
2023/08/15 05:55:23;;;;;;;4.63;3.03;;;;;;;23.31;67.50;100503.47;4084394;29;20123;-61
2023/08/15 05:57:26;;;;;;;6.93;2.92;;;;;;;23.47;66.18;100492.28;4084510;29;20040;-61
2023/08/15 05:59:29;;;;;;;5.53;3.08;;;;;;;23.50;65.94;100497.47;4081261;29;20099;-61
2023/08/15 06:01:32;;;;;;;4.03;2.50;;;;;;;23.50;66.29;100494.81;4087253;29;20040;-61
2023/08/15 06:03:35;;;;;;;6.07;3.22;;;;;;;23.58;66.14;100495.38;4087549;29;20123;-61
2023/08/15 06:05:43;;;;;;;4.97;2.83;;;;;;;23.55;66.81;100494.63;4090585;29;20035;-61
2023/08/15 06:07:47;;;;;;;5.30;2.97;;;;;;;23.51;67.54;100499.22;4085232;29;20054;-61
2023/08/15 06:09:50;;;;;;;7.97;3.60;;;;;;;23.59;67.77;100502.41;4080650;28;20043;-61
2023/08/15 06:11:52;;;;;;;7.85;3.83;;;;;;;23.64;67.86;100503.09;4088204;28;20515;-61
2023/08/15 06:13:55;;;;;;;7.28;3.67;;;;;;;23.64;68.28;100496.91;4084964;29;20443;-61
2023/08/15 06:15:58;;;;;;;5.15;3.65;;;;;;;23.68;68.48;100496.75;4088673;29;20073;-61
2023/08/15 06:18:01;;;;;;;7.38;4.03;;;;;;;23.81;67.76;100490.94;4087090;29;20039;-61
2023/08/15 06:20:05;;;;;;;7.35;4.55;;;;;;;23.82;67.74;100498.00;4085931;29;20051;-61
2023/08/15 06:22:08;;;;;;;7.15;3.95;;;;;;;23.96;67.11;100495.69;4084686;29;20047;-61
2023/08/15 06:24:13;;;;;;;5.28;3.00;;;;;;;23.91;67.41;100508.25;4085905;29;21518;-61
2023/08/15 06:26:16;;;;;;;8.25;3.92;;;;;;;23.97;67.39;100501.84;4088700;29;20200;-61
2023/08/15 06:28:20;;;;;;;5.60;3.70;;;;;;;24.00;67.15;100497.25;4087586;28;20050;-61
2023/08/15 06:30:23;;;;;;;7.47;4.18;;;;;;;24.09;67.21;100496.00;4078650;29;20062;-61
2023/08/15 06:32:25;;;;;;;10.30;3.92;;;;;;;24.22;65.53;100499.91;4091508;28;20617;-61
2023/08/15 06:34:28;;;;;;;6.80;3.78;;;;;;;24.19;65.78;100501.81;4089160;29;20474;-62
2023/08/15 06:36:32;;;;;;;6.57;3.22;;;;;;;24.17;65.97;100504.53;4085099;28;20043;-61
2023/08/15 06:38:35;;;;;;;6.70;4.18;;;;;;;24.11;65.83;100501.25;4086443;29;20047;-61
2023/08/15 06:40:40;;;;;;;6.10;3.10;;;;;;;24.23;65.70;100506.06;4088671;28;20138;-61
2023/08/15 06:42:43;;;;;;;5.90;3.30;;;;;;;24.26;65.72;100502.44;4082177;28;20048;-61
2023/08/15 06:44:45;;;;;;;5.30;3.42;;;;;;;24.28;65.76;100493.44;4086078;29;20102;-62
2023/08/15 06:46:49;;;;;;;7.20;3.25;;;;;;;24.34;66.30;100494.97;4086394;28;20036;-61
2023/08/15 06:48:52;;;;;;;6.33;3.60;;;;;;;24.38;66.43;100507.19;4087390;28;20043;-61
2023/08/15 06:50:55;;;;;;;7.00;3.65;;;;;;;24.41;66.29;100504.41;4080090;29;20517;-61
2023/08/15 06:52:57;;;;;;;7.75;3.47;;;;;;;24.48;66.65;100507.69;4091577;28;20401;-61
2023/08/15 06:55:03;;;;;;;7.60;3.60;;;;;;;24.55;65.92;100515.31;4092112;29;20122;-61
2023/08/15 06:57:07;;;;;;;3.83;2.97;;;;;;;24.63;65.66;100522.97;4086573;29;20063;-61
2023/08/15 06:59:10;;;;;;;;;;;;;;;24.67;65.50;100518.41;4084250;29;20043;-61
2023/08/15 07:01:13;;;;;;;4.78;2.97;;;;;;;24.73;66.19;100524.31;4088033;28;19950;-61
2023/08/15 07:03:17;;;;;;;8.00;3.22;;;;;;;24.87;65.95;100528.19;4086566;29;20048;-61
2023/08/15 07:05:20;;;;;;;5.45;3.08;;;;;;;24.98;65.66;100528.53;4091283;29;20123;-61
2023/08/15 07:07:24;;;;;;;8.48;3.08;;;;;;;25.06;65.38;100534.41;4088084;28;20135;-61
2023/08/15 07:09:28;;;;;;;3.97;2.58;;;;;;;25.13;65.72;100529.66;4084667;29;20039;-62
2023/08/15 07:11:30;;;;;;;;;;;;;;;25.11;65.22;100531.53;4080892;29;20040;-61
2023/08/15 07:13:35;;;;;;;4.95;3.20;;;;;;;25.12;65.31;100529.75;4102273;28;19922;-66
2023/08/15 07:15:38;;;;;;;6.60;3.30;;;;;;;25.17;65.32;100538.34;4081790;29;20040;-66
2023/08/15 07:17:41;;;;;;;13.85;3.92;;;;;;;25.22;65.26;100531.91;4086144;29;20126;-67
2023/08/15 07:19:44;;;;;;;6.00;2.97;;;;;;;25.26;65.29;100537.94;4087166;28;20039;-68
2023/08/15 07:21:47;;;;;;;6.03;3.22;;;;;;;25.28;64.76;100541.41;4084525;28;20782;-68
2023/08/15 07:23:50;;;;;;;6.85;3.47;;;;;;;25.33;64.86;100544.72;4085556;29;20520;-68
2023/08/15 07:25:53;;;;;;;6.85;3.13;;;;;;;25.37;65.04;100535.69;4091135;29;20040;-67
2023/08/15 07:27:55;;;;;;;3.97;2.95;;;;;;;25.43;65.14;100538.03;4087518;28;20391;-67
2023/08/15 07:30:00;;;;;;;5.03;2.95;;;;;;;25.43;64.10;100546.03;4080434;29;20131;-68
2023/08/15 07:32:06;;;;;;;6.03;2.97;;;;;;;25.36;64.11;100549.91;4087457;29;20572;-68
2023/08/15 07:34:09;;;;;;;5.70;3.00;;;;;;;25.37;64.45;100556.97;4083546;29;20043;-68
2023/08/15 07:36:11;;;;;;;7.03;3.58;;;;;;;25.37;64.55;100553.44;4085644;29;20048;-68
2023/08/15 07:38:14;;;;;;;6.15;3.35;;;;;;;25.45;64.26;100559.25;4086739;29;20039;-67
2023/08/15 07:40:20;;;;;;;5.80;3.50;;;;;;;25.45;64.22;100548.63;4084670;29;20051;-68
2023/08/15 07:42:23;;;;;;;6.15;2.97;;;;;;;25.43;63.90;100551.34;4083983;28;20091;-67
2023/08/15 07:44:27;;;;;;;5.00;3.05;;;;;;;25.43;63.93;100553.16;4085504;29;20047;-68
2023/08/15 07:46:31;;;;;;;;;;;;;;;25.39;63.80;100554.22;4077019;29;20098;-66
2023/08/15 07:48:34;;;;;;;6.93;3.17;;;;;;;25.50;62.98;100551.09;4079401;29;19922;-68
2023/08/15 07:50:37;;;;;;;5.35;2.80;;;;;;;25.62;62.78;100550.50;4064319;29;20585;-68
2023/08/15 07:52:39;;;;;;;7.60;2.92;;;;;;;25.75;63.00;100548.97;4087359;28;20138;-68
2023/08/15 07:54:43;;;;;;;7.03;3.28;;;;;;;25.78;63.55;100547.97;4083142;29;20135;-73
2023/08/15 07:56:46;;;;;;;4.55;2.70;;;;;;;25.84;63.32;100539.69;4080828;29;20498;-67
2023/08/15 07:58:50;;;;;;;4.75;3.10;;;;;;;25.87;63.37;100539.53;4084215;29;20043;-67
2023/08/15 08:00:53;;;;;;;8.55;3.15;;;;;;;25.95;63.11;100541.84;4088763;29;20090;-68
2023/08/15 08:02:59;;;;;;;5.63;2.65;;;;;;;25.94;61.66;100537.44;4085298;28;20158;-67
2023/08/15 08:05:06;;;;;;;5.10;2.92;;;;;;;25.95;62.48;100537.38;4085664;29;20039;-72
2023/08/15 08:07:09;;;;;;;5.18;3.20;;;;;;;25.98;61.80;100541.69;4085742;29;20051;-73
2023/08/15 08:09:13;;;;;;;4.53;2.80;;;;;;;26.06;61.81;100538.69;4087837;29;20133;-73
2023/08/15 08:11:16;;;;;;;4.05;2.33;;;;;;;26.10;62.38;100546.44;4075208;29;20171;-70
2023/08/15 08:13:19;;;;;;;5.32;2.97;;;;;;;26.18;62.23;100558.50;4089900;29;20043;-69
2023/08/15 08:15:23;;;;;;;6.65;3.03;;;;;;;26.11;61.57;100556.16;4087712;29;20074;-71
2023/08/15 08:17:26;;;;;;;7.28;3.00;;;;;;;26.08;61.92;100564.31;4084819;29;20088;-70
2023/08/15 08:19:30;;;;;;;5.47;2.80;;;;;;;26.01;62.23;100572.69;4090557;28;20050;-67
2023/08/15 08:21:34;;;;;;;;;;;;;;;25.87;62.73;100581.28;4087291;28;20057;-64
2023/08/15 08:23:36;;;;;;;4.65;3.00;;;;;;;25.82;62.17;100584.19;4102173;28;19926;-62
2023/08/15 08:25:39;;;;;;;4.78;2.90;;;;;;;25.76;62.51;100579.16;4089772;28;20465;-62
2023/08/15 08:27:43;;;;;;;4.32;2.63;;;;;;;25.82;63.22;100583.31;4083490;29;20135;-64
2023/08/15 08:29:46;;;;;;;5.65;2.72;;;;;;;25.93;62.88;100589.88;4083805;29;20503;-65
2023/08/15 08:31:52;;;;;;;3.72;2.38;;;;;;;26.03;62.86;100576.97;4087131;28;20044;-95
2023/08/15 08:33:56;;;;;;;5.53;3.20;;;;;;;26.17;62.61;100584.31;4107823;28;20043;-59
2023/08/15 08:36:00;;;;;;;5.28;3.65;;;;;;;26.30;61.84;100580.09;4122418;28;20069;-58
2023/08/15 08:38:03;;;;;;;;;;;;;;;26.37;61.48;100574.44;4118172;28;20030;-58
2023/08/15 08:40:07;;;;;;;5.00;2.78;;;;;;;26.40;59.98;100564.53;4116904;28;20028;-59
2023/08/15 08:42:11;;;;;;;3.70;2.58;;;;;;;26.45;59.33;100569.63;4122686;28;20138;-58
2023/08/15 08:44:14;;;;;;;3.80;2.50;;;;;;;26.51;58.10;100563.97;4131497;28;20069;-58
2023/08/15 08:46:18;;;;;;;3.70;2.42;;;;;;;26.63;57.89;100567.81;4132662;28;20101;-58
2023/08/15 08:48:23;;;;;;;3.95;2.10;;;;;;;26.78;57.65;100569.72;4132936;28;20034;-58
2023/08/15 08:50:28;;;;;;;4.13;1.98;;;;;;;26.93;57.95;100577.88;4136550;28;20129;-59
2023/08/15 08:52:32;;;;;;;2.95;2.50;;;;;;;27.07;57.57;100572.69;4132721;28;20138;-58
2023/08/15 08:54:35;;;;;;;5.15;2.55;;;;;;;27.11;57.37;100571.53;4135328;28;20133;-59
2023/08/15 08:57:00;;;;;;;10.40;2.90;;;;;;;27.17;56.92;100575.69;4135647;28;20045;-59
2023/08/15 08:59:10;;;;;;;4.13;2.75;;;;;;;27.23;56.63;100580.69;4135041;28;20508;-59
2023/08/15 09:01:14;;;;;;;5.18;2.60;;;;;;;27.25;56.22;100577.94;4135973;28;20040;-58
2023/08/15 09:03:17;;;;;;;4.20;2.42;;;;;;;27.13;56.85;100583.00;4131462;28;20062;-59
2023/08/15 09:05:20;;;;;;;4.27;2.50;;;;;;;27.22;57.39;100588.78;4139731;28;20112;-58
2023/08/15 09:07:22;;;;;;;3.97;2.63;;;;;;;27.29;57.61;100584.84;4130240;28;20044;-58
2023/08/15 09:09:27;;;;;;;4.28;2.30;;;;;;;27.29;57.22;100579.50;4127531;28;20121;-58
2023/08/15 09:11:33;;;;;;;;;;;;;;;27.39;57.06;100580.75;4138459;28;20594;-58
2023/08/15 09:13:36;;;;;;;5.82;2.45;;;;;;;27.53;57.54;100588.03;4135186;28;20013;-58
2023/08/15 09:15:41;;;;;;;4.78;2.60;;;;;;;27.68;57.74;100586.31;4133794;28;20038;-59
2023/08/15 09:17:44;;;;;;;5.00;2.38;;;;;;;27.79;55.92;100585.75;4133013;28;20081;-60
2023/08/15 09:19:47;;;;;;;7.25;2.97;;;;;;;27.91;55.46;100589.53;4136072;28;20092;-59
2023/08/15 09:21:50;;;;;;;6.47;2.60;;;;;;;27.97;55.00;100586.50;4125932;28;20074;-58
2023/08/15 09:23:53;;;;;;;3.42;2.38;;;;;;;28.09;54.59;100590.31;4134990;28;20049;-59
2023/08/15 09:25:58;;;;;;;4.53;2.28;;;;;;;28.14;54.31;100597.13;4133321;28;20477;-59
2023/08/15 09:28:01;;;;;;;5.70;2.65;;;;;;;28.27;53.49;100594.63;4136633;28;20034;-60
2023/08/15 09:30:08;;;;;;;6.35;2.63;;;;;;;28.39;53.80;100593.03;4118701;28;20094;-60
2023/08/15 09:32:11;;;;;;;5.95;2.83;;;;;;;28.30;55.07;100582.84;4134260;28;20488;-59
2023/08/15 09:34:13;;;;;;;4.20;2.45;;;;;;;28.26;54.28;100592.88;4132741;28;20157;-60